createdAt,value
2022-12-15T00:02:05.229Z,14.07
2022-12-15T00:04:49.999Z,9.55
2022-12-15T00:07:34.980Z,7.55
2022-12-15T00:10:19.995Z,8.95
2022-12-15T00:13:04.897Z,9.03
2022-12-15T00:15:49.862Z,9.95
2022-12-15T00:18:34.647Z,8.48
2022-12-15T00:21:19.765Z,9.00
2022-12-15T00:24:04.628Z,8.02
2022-12-15T00:26:49.737Z,10.43
2022-12-15T00:29:34.463Z,10.48
2022-12-15T00:32:19.743Z,7.68
2022-12-15T00:35:04.688Z,9.65
2022-12-15T00:37:49.659Z,8.38
2022-12-15T00:40:16.127Z,9.70
2022-12-15T00:42:42.484Z,10.30
2022-12-15T00:45:09.277Z,8.90
2022-12-15T00:47:36.460Z,8.30
2022-12-15T00:50:22.030Z,8.40
2022-12-15T00:53:07.331Z,9.73
2022-12-15T00:55:52.232Z,9.43
2022-12-15T00:58:37.492Z,10.18
2022-12-15T01:01:27.403Z,8.57
2022-12-15T01:04:12.748Z,12.93
2022-12-15T01:06:57.993Z,9.43
2022-12-15T01:09:43.512Z,9.15
2022-12-15T01:12:28.350Z,9.05
2022-12-15T01:15:13.213Z,7.95
2022-12-15T01:17:57.843Z,7.40
2022-12-15T01:20:25.323Z,6.50
2022-12-15T01:22:54.789Z,6.28
2022-12-15T01:25:24.162Z,7.57
2022-12-15T01:27:50.910Z,7.05
2022-12-15T01:30:20.974Z,7.50
2022-12-15T01:32:47.627Z,10.13
2022-12-15T01:35:14.589Z,9.95
2022-12-15T01:37:41.102Z,7.22
2022-12-15T01:40:30.580Z,7.25
2022-12-15T01:42:56.934Z,8.80
2022-12-15T01:45:29.432Z,9.83
2022-12-15T01:48:12.604Z,8.52
2022-12-15T01:50:45.140Z,6.53
2022-12-15T01:53:14.149Z,7.82
2022-12-15T01:55:44.197Z,7.82
2022-12-15T01:58:17.268Z,6.97
2022-12-15T02:00:43.777Z,8.35
2022-12-15T02:03:10.751Z,7.03
2022-12-15T02:05:39.807Z,7.93
2022-12-15T02:08:06.867Z,7.40
2022-12-15T02:14:05.740Z,7.93
2022-12-15T02:16:41.099Z,7.50
2022-12-15T02:19:16.598Z,8.35
2022-12-15T02:21:54.220Z,7.28
2022-12-15T02:24:39.805Z,8.03
2022-12-15T02:27:22.677Z,6.32
2022-12-15T02:30:30.601Z,8.10
2022-12-15T02:33:21.753Z,8.43
2022-12-15T02:36:04.455Z,8.82
2022-12-15T02:38:41.440Z,8.50
2022-12-15T02:41:44.046Z,8.52
2022-12-15T02:44:16.027Z,7.22
2022-12-15T02:47:12.929Z,8.10
2022-12-15T02:50:01.375Z,7.05
2022-12-15T02:53:00.176Z,8.33
2022-12-15T02:55:35.820Z,7.65
2022-12-15T02:58:35.610Z,7.85
2022-12-15T03:01:28.298Z,6.22
2022-12-15T03:03:56.011Z,10.93
2022-12-15T03:06:25.076Z,6.93
2022-12-15T03:08:51.431Z,8.00
2022-12-15T03:11:17.954Z,9.70
2022-12-15T03:13:44.380Z,6.35
2022-12-15T03:16:10.870Z,7.00
2022-12-15T03:18:37.368Z,7.63
2022-12-15T03:21:03.915Z,7.35
2022-12-15T03:23:30.686Z,10.02
2022-12-15T03:25:57.255Z,9.68
2022-12-15T03:28:24.438Z,7.80
2022-12-15T03:30:50.941Z,7.03
2022-12-15T03:33:18.121Z,5.93
2022-12-15T03:35:44.550Z,6.03
2022-12-15T03:38:10.902Z,5.70
2022-12-15T03:40:37.268Z,8.27
2022-12-15T03:43:03.700Z,11.07
2022-12-15T03:45:30.031Z,6.63
2022-12-15T03:47:58.002Z,6.63
2022-12-15T03:50:26.399Z,6.03
2022-12-15T03:52:54.998Z,6.15
2022-12-15T03:55:22.350Z,7.73
2022-12-15T03:57:49.350Z,7.03
2022-12-15T04:00:16.198Z,7.65
2022-12-15T04:02:43.716Z,8.23
2022-12-15T04:05:27.904Z,7.43
2022-12-15T04:07:55.704Z,7.43
2022-12-15T04:10:26.268Z,7.05
2022-12-15T04:13:05.407Z,7.82
2022-12-15T04:15:32.691Z,8.73
2022-12-15T04:18:01.953Z,8.52
2022-12-15T04:20:29.045Z,9.10
2022-12-15T04:22:55.520Z,7.70
2022-12-15T04:25:42.838Z,8.25
2022-12-15T04:28:29.785Z,6.47
2022-12-15T04:31:19.258Z,6.53
2022-12-15T04:34:08.582Z,7.60
2022-12-15T04:36:55.256Z,8.73
2022-12-15T04:39:40.581Z,8.65
2022-12-15T04:42:25.571Z,5.90
2022-12-15T04:45:16.999Z,5.90
2022-12-15T04:48:05.105Z,9.93
2022-12-15T04:50:49.976Z,8.02
2022-12-15T04:53:36.778Z,8.05
2022-12-15T04:56:22.515Z,8.38
2022-12-15T04:59:07.917Z,8.02
2022-12-15T05:01:53.305Z,5.97
2022-12-15T05:04:38.594Z,6.82
2022-12-15T05:07:23.456Z,6.88
2022-12-15T05:10:14.607Z,5.68
2022-12-15T05:13:00.395Z,6.50
2022-12-15T05:15:45.166Z,6.07
2022-12-15T05:18:29.885Z,5.85
2022-12-15T05:21:16.786Z,10.63
2022-12-15T05:24:02.067Z,7.65
2022-12-15T05:26:52.286Z,5.97
2022-12-15T05:29:38.270Z,6.50
2022-12-15T05:32:04.726Z,6.78
2022-12-15T05:34:32.986Z,7.95
2022-12-15T05:37:01.717Z,6.13
2022-12-15T05:39:29.476Z,5.97
2022-12-15T05:41:56.663Z,5.77
2022-12-15T05:44:26.398Z,8.93
2022-12-15T05:46:53.325Z,5.65
2022-12-15T05:49:20.650Z,7.07
2022-12-15T05:51:47.781Z,6.15
2022-12-15T05:54:17.045Z,6.13
2022-12-15T05:56:44.265Z,6.80
2022-12-15T05:59:10.797Z,7.10
2022-12-15T06:01:37.284Z,8.43
2022-12-15T06:04:04.830Z,6.97
2022-12-15T06:06:31.410Z,7.17
2022-12-15T06:08:58.196Z,7.07
2022-12-15T06:11:24.555Z,7.70
2022-12-15T06:13:50.933Z,8.77
2022-12-15T06:16:19.990Z,9.65
2022-12-15T06:18:50.455Z,7.27
2022-12-15T06:21:19.712Z,10.68
2022-12-15T06:23:46.547Z,8.60
2022-12-15T06:26:21.578Z,7.30
2022-12-15T06:28:48.888Z,8.02
2022-12-15T06:31:17.806Z,7.17
2022-12-15T06:33:44.349Z,6.97
2022-12-15T06:36:13.833Z,7.28
2022-12-15T06:38:43.480Z,6.85
2022-12-15T06:41:15.008Z,8.20
2022-12-15T06:43:42.038Z,7.20
2022-12-15T06:46:09.465Z,6.78
2022-12-15T06:48:36.026Z,8.40
2022-12-15T06:51:05.335Z,7.68
2022-12-15T06:53:32.663Z,8.80
2022-12-15T06:56:02.073Z,7.40
2022-12-15T06:58:28.776Z,8.68
2022-12-15T07:00:56.148Z,7.95
2022-12-15T07:03:22.856Z,7.55
2022-12-15T07:06:01.208Z,7.80
2022-12-15T07:08:32.232Z,6.83
2022-12-15T07:11:03.521Z,7.00
2022-12-15T07:13:30.950Z,9.07
2022-12-15T07:16:02.329Z,5.97
2022-12-15T07:18:29.694Z,7.70
2022-12-15T07:20:57.449Z,7.27
2022-12-15T07:23:39.893Z,6.75
2022-12-15T07:26:11.739Z,8.57
2022-12-15T07:28:38.599Z,9.00
2022-12-15T07:31:11.020Z,10.32
2022-12-15T07:33:38.440Z,8.03
2022-12-15T07:36:05.763Z,7.82
2022-12-15T07:38:32.298Z,8.10
2022-12-15T07:41:04.112Z,7.53
2022-12-15T07:43:31.726Z,8.43
2022-12-15T07:45:59.012Z,10.10
2022-12-15T07:48:25.616Z,10.10
2022-12-15T07:51:04.372Z,10.00
2022-12-15T07:53:35.213Z,7.13
2022-12-15T07:56:08.903Z,10.10
2022-12-15T07:58:36.598Z,7.73
2022-12-15T08:01:07.723Z,9.63
2022-12-15T08:03:35.724Z,8.70
2022-12-15T08:06:11.619Z,9.80
2022-12-15T08:08:38.555Z,10.18
2022-12-15T08:11:10.796Z,10.03
2022-12-15T08:14:02.037Z,8.85
2022-12-15T08:16:25.214Z,10.18
2022-12-15T08:18:51.733Z,10.77
2022-12-15T08:21:18.586Z,10.75
2022-12-15T08:23:45.302Z,8.33
2022-12-15T08:26:14.614Z,8.82
2022-12-15T08:28:42.241Z,11.15
2022-12-15T08:31:20.446Z,9.90
2022-12-15T08:33:48.087Z,10.77
2022-12-15T08:36:16.820Z,12.40
2022-12-15T08:38:44.460Z,10.93
2022-12-15T08:41:20.247Z,11.73
2022-12-15T08:43:49.419Z,15.60
2022-12-15T08:46:17.755Z,24.35
2022-12-15T08:48:44.842Z,21.47
2022-12-15T08:51:12.029Z,16.25
2022-12-15T08:53:38.679Z,18.73
2022-12-15T08:56:07.194Z,15.90
2022-12-15T08:58:34.147Z,20.23
2022-12-15T09:01:02.420Z,16.17
2022-12-15T09:03:29.618Z,16.25
2022-12-15T09:05:57.637Z,15.15
2022-12-15T09:08:24.537Z,13.45
2022-12-15T09:10:52.630Z,14.90
2022-12-15T09:13:19.319Z,18.20
2022-12-15T09:16:08.917Z,12.90
2022-12-15T09:18:33.790Z,14.23
2022-12-15T09:21:04.636Z,14.20
2022-12-15T09:23:31.967Z,15.60
2022-12-15T09:26:10.673Z,13.97
2022-12-15T09:28:38.391Z,11.45
2022-12-15T09:31:13.317Z,17.15
2022-12-15T09:33:41.694Z,12.70
2022-12-15T09:36:09.459Z,15.77
2022-12-15T09:38:40.324Z,14.97
2022-12-15T09:41:09.894Z,9.80
2022-12-15T09:43:46.756Z,15.40
2022-12-15T09:46:39.844Z,17.63
2022-12-15T09:49:19.407Z,16.33
2022-12-15T09:52:05.918Z,17.90
2022-12-15T09:54:37.516Z,37.08
2022-12-15T09:57:44.808Z,22.50
2022-12-15T10:00:25.792Z,17.23
2022-12-15T10:03:07.980Z,32.58
2022-12-15T10:06:16.040Z,19.93
2022-12-15T10:08:50.434Z,21.25
2022-12-15T10:11:56.953Z,17.67
2022-12-15T10:14:30.357Z,14.65
2022-12-15T10:17:06.817Z,14.32
2022-12-15T10:19:42.280Z,16.73
2022-12-15T10:22:13.877Z,18.70
2022-12-15T10:28:05.158Z,16.63
2022-12-15T10:30:32.001Z,16.50
2022-12-15T10:33:10.757Z,14.27
2022-12-15T10:35:39.722Z,13.43
2022-12-15T10:38:13.844Z,12.63
2022-12-15T10:40:50.276Z,14.98
2022-12-15T10:43:37.312Z,11.60
2022-12-15T10:46:07.239Z,12.43
2022-12-15T10:48:33.718Z,10.27
2022-12-15T10:51:32.571Z,13.82
2022-12-15T10:54:01.706Z,11.05
2022-12-15T10:56:33.789Z,14.73
2022-12-15T10:59:04.019Z,12.83
2022-12-15T11:01:33.636Z,8.80
2022-12-15T11:04:00.599Z,10.07
2022-12-15T11:06:34.539Z,17.30
2022-12-15T11:09:10.149Z,13.05
2022-12-15T11:12:05.941Z,10.00
2022-12-15T11:14:52.753Z,11.63
2022-12-15T11:17:22.025Z,17.55
2022-12-15T11:20:04.865Z,11.30
2022-12-15T11:22:50.322Z,10.95
2022-12-15T11:25:29.214Z,11.63
2022-12-15T11:27:59.029Z,11.00
2022-12-15T11:30:33.719Z,9.38
2022-12-15T11:33:01.306Z,10.95
2022-12-15T11:35:39.032Z,9.48
2022-12-15T11:38:19.507Z,10.67
2022-12-15T11:40:45.910Z,11.10
2022-12-15T11:43:36.562Z,8.82
2022-12-15T11:46:20.198Z,10.95
2022-12-15T11:49:01.839Z,12.43
2022-12-15T11:51:42.563Z,11.10
2022-12-15T11:54:23.597Z,9.35
2022-12-15T11:57:10.760Z,10.70
2022-12-15T12:00:13.884Z,9.90
2022-12-15T12:02:58.674Z,8.85
2022-12-15T12:05:46.743Z,9.00
2022-12-15T12:08:40.120Z,11.55
2022-12-15T12:11:20.931Z,11.18
2022-12-15T12:14:12.075Z,8.43
2022-12-15T12:17:03.569Z,9.80
2022-12-15T12:19:52.263Z,9.93
2022-12-15T12:22:28.037Z,12.25
2022-12-15T12:25:15.594Z,8.63
2022-12-15T12:28:01.925Z,9.10
2022-12-15T12:30:38.054Z,8.98
2022-12-15T12:33:11.831Z,8.77
2022-12-15T12:35:45.739Z,8.77
2022-12-15T12:38:13.592Z,12.77
2022-12-15T12:40:59.653Z,10.30
2022-12-15T12:43:39.043Z,9.32
2022-12-15T12:46:14.985Z,9.73
2022-12-15T12:49:13.780Z,9.60
2022-12-15T12:51:41.950Z,10.02
2022-12-15T12:54:39.837Z,11.00
2022-12-15T12:57:12.018Z,10.02
2022-12-15T12:59:58.450Z,8.53
2022-12-15T13:02:25.439Z,10.73
2022-12-15T13:04:57.949Z,7.82
2022-12-15T13:07:36.263Z,9.00
2022-12-15T13:10:17.966Z,11.25
2022-12-15T13:12:52.303Z,10.83
2022-12-15T13:15:28.876Z,8.88
2022-12-15T13:18:04.556Z,9.35
2022-12-15T13:20:33.235Z,10.48
2022-12-15T13:23:25.273Z,8.23
2022-12-15T13:25:57.888Z,10.60
2022-12-15T13:28:42.585Z,11.50
2022-12-15T13:31:18.642Z,10.13
2022-12-15T13:33:50.747Z,9.98
2022-12-15T13:36:42.223Z,10.15
2022-12-15T13:39:14.619Z,9.83
2022-12-15T13:41:54.516Z,11.23
2022-12-15T13:44:48.873Z,13.45
2022-12-15T13:47:22.106Z,14.13
2022-12-15T13:50:01.327Z,16.05
2022-12-15T13:53:08.713Z,22.40
2022-12-15T13:55:32.451Z,22.75
2022-12-15T13:58:05.109Z,20.88
2022-12-15T14:00:32.765Z,16.80
2022-12-15T14:03:07.221Z,22.17
2022-12-15T14:05:33.773Z,21.00
2022-12-15T14:08:03.409Z,17.38
2022-12-15T14:10:32.786Z,16.75
2022-12-15T14:13:15.580Z,15.93
2022-12-15T14:15:50.801Z,17.95
2022-12-15T14:18:35.680Z,14.40
2022-12-15T14:21:06.556Z,16.48
2022-12-15T14:24:04.021Z,14.85
2022-12-15T14:26:31.758Z,16.65
2022-12-15T14:29:05.217Z,17.70
2022-12-15T14:31:31.894Z,17.00
2022-12-15T14:34:29.220Z,14.82
2022-12-15T14:36:59.474Z,15.65
2022-12-15T14:39:32.708Z,18.65
2022-12-15T14:42:01.295Z,14.18
2022-12-15T14:44:50.859Z,16.43
2022-12-15T14:47:26.756Z,18.25
2022-12-15T14:49:55.483Z,15.95
2022-12-15T14:52:35.610Z,16.00
2022-12-15T14:55:04.640Z,14.85
2022-12-15T14:57:45.163Z,14.90
2022-12-15T15:00:48.693Z,15.00
2022-12-15T15:05:49.924Z,16.23
2022-12-15T15:08:29.933Z,16.25
2022-12-15T15:11:01.418Z,17.83
2022-12-15T15:13:40.707Z,15.90
2022-12-15T15:16:15.471Z,18.40
2022-12-15T15:18:43.262Z,14.93
2022-12-15T15:21:18.173Z,14.15
2022-12-15T15:24:01.814Z,12.73
2022-12-15T15:26:30.147Z,13.40
2022-12-15T15:28:57.028Z,14.05
2022-12-15T15:31:41.257Z,15.00
2022-12-15T15:34:08.619Z,14.35
2022-12-15T15:36:37.816Z,20.33
2022-12-15T15:39:12.701Z,18.85
2022-12-15T15:41:39.232Z,20.20
2022-12-15T15:44:13.744Z,15.77
2022-12-15T15:46:47.994Z,18.38
2022-12-15T15:49:18.515Z,18.87
2022-12-15T15:51:45.318Z,17.83
2022-12-15T15:54:16.423Z,15.70
2022-12-15T15:56:42.825Z,18.85
2022-12-15T15:59:14.956Z,18.35
2022-12-15T16:01:41.595Z,17.77
2022-12-15T16:04:08.119Z,15.73
2022-12-15T16:06:36.018Z,14.07
2022-12-15T16:09:02.594Z,21.90
2022-12-15T16:11:30.829Z,17.02
2022-12-15T16:13:57.713Z,16.77
2022-12-15T16:16:29.933Z,13.82
2022-12-15T16:18:56.393Z,18.27
2022-12-15T16:21:27.012Z,16.50
2022-12-15T16:23:54.872Z,16.30
2022-12-15T16:26:27.891Z,13.47
2022-12-15T16:28:54.364Z,15.15
2022-12-15T16:31:41.977Z,15.65
2022-12-15T16:34:08.795Z,15.82
2022-12-15T16:36:35.383Z,17.13
2022-12-15T16:39:01.941Z,18.10
2022-12-15T16:41:28.326Z,15.82
2022-12-15T16:43:54.787Z,15.75
2022-12-15T16:46:21.184Z,19.45
2022-12-15T16:48:47.819Z,21.00
2022-12-15T16:51:32.455Z,16.53
2022-12-15T16:53:58.852Z,19.77
2022-12-15T16:56:25.302Z,19.52
2022-12-15T16:58:57.476Z,17.58
2022-12-15T17:01:29.360Z,17.30
2022-12-15T17:03:56.111Z,19.83
2022-12-15T17:06:22.623Z,18.30
2022-12-15T17:08:55.034Z,15.73
2022-12-15T17:11:23.788Z,18.30
2022-12-15T17:13:52.342Z,17.33
2022-12-15T17:16:21.063Z,17.07
2022-12-15T17:18:48.066Z,21.70
2022-12-15T17:21:34.156Z,18.85
2022-12-15T17:24:11.270Z,20.50
2022-12-15T17:26:37.909Z,17.08
2022-12-15T17:29:13.130Z,18.87
2022-12-15T17:31:39.539Z,16.65
2022-12-15T17:34:25.626Z,24.02
2022-12-15T17:36:52.540Z,21.13
2022-12-15T17:39:21.095Z,17.55
2022-12-15T17:42:04.359Z,17.33
2022-12-15T17:44:36.738Z,15.80
2022-12-15T17:47:05.650Z,17.52
2022-12-15T17:49:36.076Z,20.05
2022-12-15T17:52:07.699Z,20.70
2022-12-15T17:54:34.164Z,18.67
2022-12-15T17:57:00.599Z,16.20
2022-12-15T17:59:27.104Z,18.35
2022-12-15T18:01:56.811Z,20.50
2022-12-15T18:04:23.421Z,19.95
2022-12-15T18:06:49.894Z,17.80
2022-12-15T18:09:18.235Z,21.08
2022-12-15T18:11:46.889Z,17.15
2022-12-15T18:14:16.067Z,23.10
2022-12-15T18:16:43.465Z,19.98
2022-12-15T18:19:09.917Z,25.83
2022-12-15T18:21:37.135Z,25.10
2022-12-15T18:24:11.293Z,24.02
2022-12-15T18:26:38.071Z,25.27
2022-12-15T18:29:17.843Z,23.10
2022-12-15T18:31:47.013Z,25.37
2022-12-15T18:34:16.348Z,27.13
2022-12-15T18:36:42.971Z,20.02
2022-12-15T18:39:30.242Z,25.17
2022-12-15T18:41:57.254Z,22.95
2022-12-15T18:44:28.835Z,20.57
2022-12-15T18:46:55.606Z,21.70
2022-12-15T18:49:23.513Z,21.75
2022-12-15T18:51:50.405Z,23.70
2022-12-15T18:54:22.320Z,22.27
2022-12-15T18:56:49.998Z,20.70
2022-12-15T18:59:17.754Z,22.23
2022-12-15T19:01:46.183Z,23.45
2022-12-15T19:04:13.685Z,20.95
2022-12-15T19:06:40.949Z,17.42
2022-12-15T19:09:17.300Z,21.43
2022-12-15T19:12:06.483Z,19.67
2022-12-15T19:14:42.617Z,23.05
2022-12-15T19:17:33.677Z,20.77
2022-12-15T19:20:20.686Z,20.98
2022-12-15T19:22:48.530Z,22.47
2022-12-15T19:25:26.507Z,22.52
2022-12-15T19:28:00.652Z,16.60
2022-12-15T19:30:33.202Z,18.40
2022-12-15T19:33:01.185Z,19.85
2022-12-15T19:35:28.156Z,20.30
2022-12-15T19:37:57.254Z,17.90
2022-12-15T19:40:27.714Z,18.48
2022-12-15T19:42:55.495Z,19.25
2022-12-15T19:45:25.248Z,16.98
2022-12-15T19:47:51.999Z,20.27
2022-12-15T19:50:28.204Z,17.42
2022-12-15T19:52:59.234Z,18.55
2022-12-15T19:55:29.922Z,17.42
2022-12-15T19:57:56.353Z,16.88
2022-12-15T20:00:24.781Z,19.83
2022-12-15T20:02:54.511Z,19.92
2022-12-15T20:05:25.417Z,15.98
2022-12-15T20:07:54.593Z,17.17
2022-12-15T20:10:29.392Z,18.73
2022-12-15T20:12:58.518Z,22.93
2022-12-15T20:15:26.285Z,19.73
2022-12-15T20:17:58.634Z,22.35
2022-12-15T20:20:27.874Z,24.58
2022-12-15T20:22:57.586Z,23.27
2022-12-15T20:25:28.687Z,21.67
2022-12-15T20:27:56.352Z,20.60
2022-12-15T20:30:26.607Z,25.25
2022-12-15T20:32:53.519Z,26.15
2022-12-15T20:35:21.888Z,23.08
2022-12-15T20:37:49.522Z,18.83
2022-12-15T20:40:17.553Z,20.70
2022-12-15T20:42:43.935Z,18.25
2022-12-15T20:45:14.643Z,19.77
2022-12-15T20:47:43.965Z,19.77
2022-12-15T20:50:40.844Z,18.73
2022-12-15T20:53:23.775Z,21.92
2022-12-15T20:55:52.496Z,22.98
2022-12-15T20:58:19.588Z,20.73
2022-12-15T21:00:48.392Z,22.63
2022-12-15T21:03:26.894Z,23.60
2022-12-15T21:05:56.238Z,24.63
2022-12-15T21:08:31.106Z,21.67
2022-12-15T21:11:02.377Z,20.90
2022-12-15T21:13:32.956Z,19.40
2022-12-15T21:15:59.658Z,19.30
2022-12-15T21:19:18.227Z,24.30
2022-12-15T21:21:20.828Z,22.83
2022-12-15T21:23:47.643Z,22.98
2022-12-15T21:26:18.278Z,18.40
2022-12-15T21:28:44.787Z,17.93
2022-12-15T21:31:11.172Z,24.50
2022-12-15T21:33:37.551Z,18.70
2022-12-15T21:36:04.102Z,19.90
2022-12-15T21:38:36.504Z,21.25
2022-12-15T21:41:05.393Z,20.60
2022-12-15T21:43:35.231Z,22.02
2022-12-15T21:46:10.879Z,25.90
2022-12-15T21:48:55.936Z,25.17
2022-12-15T21:51:22.471Z,22.42
2022-12-15T21:53:48.919Z,24.60
2022-12-15T21:56:17.281Z,27.58
2022-12-15T21:58:44.870Z,27.80
2022-12-15T22:01:21.380Z,21.70
2022-12-15T22:03:52.153Z,23.42
2022-12-15T22:06:21.804Z,24.57
2022-12-15T22:08:48.970Z,26.00
2022-12-15T22:11:25.432Z,25.92
2022-12-15T22:13:55.116Z,24.75
2022-12-15T22:16:22.204Z,22.90
2022-12-15T22:18:51.484Z,21.33
2022-12-15T22:21:18.315Z,24.13
2022-12-15T22:23:47.834Z,20.90
2022-12-15T22:26:19.494Z,21.42
2022-12-15T22:28:46.013Z,20.95
2022-12-15T22:31:12.476Z,20.70
2022-12-15T22:33:38.858Z,22.90
2022-12-15T22:36:05.338Z,23.63
2022-12-15T22:38:32.002Z,20.23
2022-12-15T22:40:59.829Z,24.17
2022-12-15T22:43:36.513Z,20.47
2022-12-15T22:46:04.353Z,24.50
2022-12-15T22:48:34.599Z,21.58
2022-12-15T22:51:01.767Z,18.50
2022-12-15T22:53:31.681Z,17.95
2022-12-15T22:55:59.655Z,22.13
2022-12-15T22:58:36.757Z,20.10
2022-12-15T23:01:06.526Z,22.75
2022-12-15T23:03:34.434Z,19.83
2022-12-15T23:06:02.865Z,19.42
2022-12-15T23:08:30.867Z,21.07
2022-12-15T23:11:17.392Z,20.48
2022-12-15T23:13:44.481Z,19.08
2022-12-15T23:16:21.392Z,20.77
2022-12-15T23:18:53.822Z,19.83
2022-12-15T23:21:22.430Z,20.13
2022-12-15T23:23:49.367Z,18.33
2022-12-15T23:26:19.028Z,24.02
2022-12-15T23:28:45.884Z,21.85
2022-12-15T23:31:12.543Z,21.80
2022-12-15T23:33:39.384Z,20.03
2022-12-15T23:36:06.278Z,18.88
2022-12-15T23:38:32.863Z,17.48
2022-12-15T23:40:59.604Z,16.80
2022-12-15T23:43:28.564Z,20.25
2022-12-15T23:46:06.691Z,18.60
2022-12-15T23:48:35.654Z,20.33
2022-12-15T23:51:13.656Z,18.63
2022-12-15T23:53:41.400Z,18.17
2022-12-15T23:56:15.788Z,19.88
2022-12-15T23:58:43.840Z,19.17
